createdAt,value
2019-01-24T00:00:41.140Z,0.10
2019-01-24T00:03:10.447Z,0.10
2019-01-24T00:05:39.447Z,0.10
2019-01-24T00:08:08.576Z,0.10
2019-01-24T00:10:37.532Z,0.10
2019-01-24T00:13:06.577Z,0.10
2019-01-24T00:15:35.672Z,0.10
2019-01-24T00:18:14.146Z,0.10
2019-01-24T00:20:38.740Z,0.20
2019-01-24T00:23:07.692Z,0.20
2019-01-24T00:25:36.637Z,0.20
2019-01-24T00:28:05.568Z,0.20
2019-01-24T00:30:34.640Z,0.20
2019-01-24T00:33:03.691Z,0.20
2019-01-24T00:35:32.856Z,0.20
2019-01-24T00:38:01.888Z,0.20
2019-01-24T00:40:30.864Z,0.20
2019-01-24T00:42:59.868Z,0.20
2019-01-24T00:45:28.971Z,0.20
2019-01-24T00:47:58.127Z,0.20
2019-01-24T00:50:27.116Z,0.20
2019-01-24T00:52:56.151Z,0.20
2019-01-24T00:55:25.360Z,0.20
2019-01-24T00:57:54.360Z,0.20
2019-01-24T01:00:24.988Z,0.20
2019-01-24T01:02:54.243Z,0.20
2019-01-24T01:05:23.439Z,0.20
2019-01-24T01:07:52.515Z,0.20
2019-01-24T01:10:21.480Z,0.20
2019-01-24T01:12:50.433Z,0.20
2019-01-24T01:15:19.592Z,0.20
2019-01-24T01:17:48.614Z,0.20
2019-01-24T01:20:22.596Z,0.20
2019-01-24T01:22:51.660Z,0.20
2019-01-24T01:25:20.652Z,0.20
2019-01-24T01:27:49.759Z,0.20
2019-01-24T01:30:23.543Z,0.20
2019-01-24T01:32:53.373Z,0.20
2019-01-24T01:35:22.385Z,0.20
2019-01-24T01:37:51.333Z,0.20
2019-01-24T01:40:20.560Z,0.20
2019-01-24T01:42:49.576Z,0.30
2019-01-24T01:45:20.484Z,0.20
2019-01-24T01:47:49.803Z,0.20
2019-01-24T01:50:20.719Z,0.20
2019-01-24T01:52:49.665Z,0.20
2019-01-24T01:55:18.628Z,0.20
2019-01-24T01:57:47.551Z,0.20
2019-01-24T02:00:18.949Z,0.20
2019-01-24T02:02:47.899Z,0.20
2019-01-24T02:05:16.894Z,0.20
2019-01-24T02:07:45.820Z,0.20
2019-01-24T02:10:17.162Z,0.20
2019-01-24T02:12:46.152Z,0.20
2019-01-24T02:15:16.077Z,0.20
2019-01-24T02:17:45.145Z,0.20
2019-01-24T02:20:16.944Z,0.20
2019-01-24T02:22:45.877Z,0.10
2019-01-24T02:25:15.243Z,0.10
2019-01-24T02:27:44.360Z,0.10
2019-01-24T02:30:19.885Z,0.10
2019-01-24T02:32:48.892Z,0.10
2019-01-24T02:35:17.819Z,0.10
2019-01-24T02:37:46.848Z,0.10
2019-01-24T02:40:15.889Z,0.10
2019-01-24T02:42:44.938Z,0.10
2019-01-24T02:45:15.292Z,0.10
2019-01-24T02:47:44.223Z,0.00
2019-01-24T02:50:15.192Z,0.00
2019-01-24T02:52:44.143Z,0.00
2019-01-24T02:55:14.311Z,0.00
2019-01-24T02:57:43.313Z,0.00
2019-01-24T03:00:17.359Z,-0.10
2019-01-24T03:02:46.288Z,-0.10
2019-01-24T03:05:16.843Z,-0.10
2019-01-24T03:07:45.915Z,0.00
2019-01-24T03:10:15.112Z,0.00
2019-01-24T03:12:44.124Z,0.00
2019-01-24T03:15:15.298Z,0.00
2019-01-24T03:17:44.287Z,0.00
2019-01-24T03:20:13.381Z,0.00
2019-01-24T03:22:42.408Z,0.00
2019-01-24T03:25:11.429Z,0.00
2019-01-24T03:27:40.346Z,0.00
2019-01-24T03:30:15.133Z,0.00
2019-01-24T03:32:44.081Z,0.00
2019-01-24T03:35:15.588Z,0.00
2019-01-24T03:37:44.569Z,0.00
2019-01-24T03:40:14.140Z,0.00
2019-01-24T03:42:43.288Z,-0.10
2019-01-24T03:45:14.126Z,-0.10
2019-01-24T03:47:43.048Z,-0.20
2019-01-24T03:50:14.595Z,-0.20
2019-01-24T03:52:44.007Z,-0.20
2019-01-24T03:55:13.928Z,-0.20
2019-01-24T03:57:42.855Z,-0.30
2019-01-24T04:00:24.100Z,-0.30
2019-01-24T04:02:53.128Z,-0.20
2019-01-24T04:05:22.215Z,-0.30
2019-01-24T04:07:51.188Z,-0.30
2019-01-24T04:10:21.285Z,-0.30
2019-01-24T04:12:50.800Z,-0.40
2019-01-24T04:15:26.631Z,-0.40
2019-01-24T04:17:55.629Z,-0.50
2019-01-24T04:20:24.547Z,-0.60
2019-01-24T04:22:53.499Z,-0.70
2019-01-24T04:25:22.621Z,-0.80
2019-01-24T04:27:51.636Z,-0.80
2019-01-24T04:30:22.447Z,-0.90
2019-01-24T04:32:51.551Z,-0.90
2019-01-24T04:35:20.944Z,-0.90
2019-01-24T04:37:49.883Z,-0.90
2019-01-24T04:40:19.836Z,-1.00
2019-01-24T04:42:48.873Z,-0.90
2019-01-24T04:45:18.043Z,-0.80
2019-01-24T04:47:47.260Z,-0.80
2019-01-24T04:50:17.272Z,-0.80
2019-01-24T04:52:46.289Z,-0.70
2019-01-24T04:55:17.414Z,-0.70
2019-01-24T04:57:46.385Z,-0.70
2019-01-24T05:00:18.446Z,-0.70
2019-01-24T05:02:47.404Z,-0.60
2019-01-24T05:05:16.524Z,-0.60
2019-01-24T05:07:45.634Z,-0.50
2019-01-24T05:10:14.584Z,-0.50
2019-01-24T05:12:43.679Z,-0.50
2019-01-24T05:15:12.795Z,-0.50
2019-01-24T05:17:42.143Z,-0.40
2019-01-24T05:20:11.617Z,-0.40
2019-01-24T05:22:40.567Z,-0.40
2019-01-24T05:25:12.505Z,-0.40
2019-01-24T05:27:41.591Z,-0.30
2019-01-24T05:30:17.279Z,-0.30
2019-01-24T05:32:46.211Z,-0.30
2019-01-24T05:35:15.192Z,-0.30
2019-01-24T05:37:44.423Z,-0.30
2019-01-24T05:40:13.387Z,-0.30
2019-01-24T05:42:42.675Z,-0.30
2019-01-24T05:45:18.550Z,-0.30
2019-01-24T05:47:47.575Z,-0.30
2019-01-24T05:50:16.584Z,-0.30
2019-01-24T05:52:45.662Z,-0.30
2019-01-24T05:55:14.660Z,-0.30
2019-01-24T05:57:43.624Z,-0.30
2019-01-24T06:00:23.791Z,-0.30
2019-01-24T06:02:52.744Z,-0.30
2019-01-24T06:05:21.684Z,-0.20
2019-01-24T06:07:50.715Z,-0.30
2019-01-24T06:10:19.649Z,-0.30
2019-01-24T06:12:48.620Z,-0.30
2019-01-24T06:15:18.048Z,-0.30
2019-01-24T06:17:47.079Z,-0.30
2019-01-24T06:20:16.181Z,-0.30
2019-01-24T06:22:45.222Z,-0.30
2019-01-24T06:25:14.479Z,-0.30
2019-01-24T06:27:43.496Z,-0.30
2019-01-24T06:30:16.415Z,-0.30
2019-01-24T06:32:45.349Z,-0.30
2019-01-24T06:35:14.283Z,-0.30
2019-01-24T06:37:43.276Z,-0.30
2019-01-24T06:40:13.195Z,-0.30
2019-01-24T06:42:42.408Z,-0.30
2019-01-24T06:45:19.453Z,-0.40
2019-01-24T06:47:48.612Z,-0.40
2019-01-24T06:50:17.815Z,-0.40
2019-01-24T06:52:47.401Z,-0.50
2019-01-24T06:55:19.383Z,-0.60
2019-01-24T06:57:48.471Z,-0.60
2019-01-24T07:00:18.047Z,-0.70
2019-01-24T07:02:47.368Z,-0.70
2019-01-24T07:05:16.300Z,-0.70
2019-01-24T07:07:45.325Z,-0.70
2019-01-24T07:10:16.795Z,-0.70
2019-01-24T07:12:45.732Z,-0.70
2019-01-24T07:15:16.803Z,-0.70
2019-01-24T07:17:46.117Z,-0.70
2019-01-24T07:20:19.651Z,-0.70
2019-01-24T07:22:48.600Z,-0.70
2019-01-24T07:25:22.653Z,-0.80
2019-01-24T07:27:51.744Z,-0.90
2019-01-24T07:30:21.284Z,-1.00
2019-01-24T07:32:50.327Z,-1.00
2019-01-24T07:35:19.447Z,-1.00
2019-01-24T07:37:48.467Z,-1.00
2019-01-24T07:40:18.359Z,-0.90
2019-01-24T07:42:47.463Z,-0.90
2019-01-24T07:45:37.226Z,-0.90
2019-01-24T07:48:06.531Z,-0.90
2019-01-24T07:50:35.619Z,-1.00
2019-01-24T07:53:05.543Z,-1.00
2019-01-24T07:55:34.544Z,-1.10
2019-01-24T07:58:03.476Z,-1.10
2019-01-24T08:00:32.670Z,-1.20
2019-01-24T08:03:01.868Z,-1.20
2019-01-24T08:05:31.045Z,-1.20
2019-01-24T08:08:00.008Z,-1.30
2019-01-24T08:10:28.940Z,-1.20
2019-01-24T08:12:57.879Z,-1.30
2019-01-24T08:15:26.835Z,-1.30
2019-01-24T08:17:55.904Z,-1.30
2019-01-24T08:20:26.257Z,-1.30
2019-01-24T08:22:55.216Z,-1.30
2019-01-24T08:25:24.311Z,-1.30
2019-01-24T08:27:53.323Z,-1.30
2019-01-24T08:30:24.507Z,-1.30
2019-01-24T08:32:53.440Z,-1.30
2019-01-24T08:35:22.385Z,-1.30
2019-01-24T08:37:51.571Z,-1.30
2019-01-24T08:40:20.681Z,-1.30
2019-01-24T08:42:49.648Z,-1.20
2019-01-24T08:45:18.781Z,-1.20
2019-01-24T08:47:47.808Z,-1.20
2019-01-24T08:50:18.192Z,-1.10
2019-01-24T08:52:47.149Z,-1.10
2019-01-24T08:55:24.568Z,-1.10
2019-01-24T08:57:53.779Z,-1.00
2019-01-24T09:00:22.744Z,-0.90
2019-01-24T09:02:51.965Z,-0.80
2019-01-24T09:05:20.933Z,-0.70
2019-01-24T09:07:49.876Z,-0.50
2019-01-24T09:10:21.064Z,-0.40
2019-01-24T09:12:50.023Z,-0.30
2019-01-24T09:15:18.952Z,-0.20
2019-01-24T09:17:47.872Z,-0.10
2019-01-24T09:20:17.475Z,-0.10
2019-01-24T09:22:46.495Z,-0.10
2019-01-24T09:25:15.468Z,-0.10
2019-01-24T09:27:44.784Z,0.00
2019-01-24T09:30:16.623Z,0.00
2019-01-24T09:32:45.581Z,0.00
2019-01-24T09:35:15.421Z,0.00
2019-01-24T09:37:44.536Z,-0.10
2019-01-24T09:40:14.552Z,-0.10
2019-01-24T09:42:43.588Z,0.00
2019-01-24T09:45:18.000Z,-0.10
2019-01-24T09:47:46.980Z,-0.10
2019-01-24T09:50:18.608Z,0.00
2019-01-24T09:52:47.621Z,0.30
2019-01-24T09:55:16.605Z,0.80
2019-01-24T09:57:45.635Z,1.30
2019-01-24T10:00:23.209Z,1.70
2019-01-24T10:02:52.172Z,1.90
2019-01-24T10:05:21.115Z,2.00
2019-01-24T10:07:50.042Z,2.10
2019-01-24T10:10:20.923Z,2.20
2019-01-24T10:12:50.016Z,2.20
2019-01-24T10:15:20.920Z,2.30
2019-01-24T10:17:50.004Z,2.30
2019-01-24T10:20:20.379Z,2.30
2019-01-24T10:22:49.340Z,2.40
2019-01-24T10:25:31.725Z,2.30
2019-01-24T10:28:00.657Z,2.30
2019-01-24T10:30:29.674Z,2.30
2019-01-24T10:32:58.764Z,2.40
2019-01-24T10:35:27.696Z,2.40
2019-01-24T10:37:56.767Z,2.40
2019-01-24T10:40:27.901Z,2.40
2019-01-24T10:42:57.005Z,2.40
2019-01-24T10:45:26.105Z,2.40
2019-01-24T10:47:55.231Z,2.30
2019-01-24T10:50:24.928Z,2.30
2019-01-24T10:52:53.868Z,2.20
2019-01-24T10:55:25.040Z,2.20
2019-01-24T10:57:55.484Z,2.20
2019-01-24T11:00:33.469Z,2.20
2019-01-24T11:03:04.000Z,2.10
2019-01-24T11:05:33.811Z,2.10
2019-01-24T11:08:03.026Z,2.10
2019-01-24T11:10:32.119Z,2.10
2019-01-24T11:13:01.108Z,2.20
2019-01-24T11:15:30.063Z,2.20
2019-01-24T11:17:59.186Z,2.20
2019-01-24T11:20:28.187Z,2.20
2019-01-24T11:22:57.203Z,2.20
2019-01-24T11:25:26.244Z,2.20
2019-01-24T11:27:55.177Z,2.20
2019-01-24T11:30:25.884Z,2.20
2019-01-24T11:32:54.811Z,2.20
2019-01-24T11:35:26.147Z,2.20
2019-01-24T11:37:55.112Z,2.20
2019-01-24T11:40:24.035Z,2.20
2019-01-24T11:42:53.000Z,2.30
2019-01-24T11:45:24.307Z,2.30
2019-01-24T11:47:53.263Z,2.40
2019-01-24T11:50:22.235Z,2.50
2019-01-24T11:52:51.204Z,2.60
2019-01-24T11:55:20.920Z,2.70
2019-01-24T11:57:50.171Z,2.80
2019-01-24T12:00:33.337Z,2.90
2019-01-24T12:03:02.300Z,2.90
2019-01-24T12:05:31.232Z,2.90
2019-01-24T12:08:00.181Z,2.90
2019-01-24T12:10:29.129Z,2.90
2019-01-24T12:12:58.060Z,3.00
2019-01-24T12:15:27.227Z,2.90
2019-01-24T12:17:56.259Z,2.90
2019-01-24T12:20:25.414Z,2.90
2019-01-24T12:22:54.491Z,3.00
2019-01-24T12:25:23.449Z,3.10
2019-01-24T12:27:52.635Z,3.20
2019-01-24T12:30:26.665Z,3.30
2019-01-24T12:32:55.780Z,3.30
2019-01-24T12:35:24.855Z,3.40
2019-01-24T12:37:54.045Z,3.40
2019-01-24T12:40:23.180Z,3.40
2019-01-24T12:42:52.203Z,3.40
2019-01-24T12:45:26.796Z,3.50
2019-01-24T12:47:55.825Z,3.50
2019-01-24T12:50:24.840Z,3.50
2019-01-24T12:52:53.864Z,3.50
2019-01-24T12:55:23.532Z,3.40
2019-01-24T12:57:52.670Z,3.40
2019-01-24T13:00:24.195Z,3.30
2019-01-24T13:02:53.220Z,3.20
2019-01-24T13:05:22.315Z,3.10
2019-01-24T13:07:51.580Z,3.10
2019-01-24T13:10:22.462Z,3.00
2019-01-24T13:12:51.472Z,3.00
2019-01-24T13:15:23.088Z,3.00
2019-01-24T13:17:52.017Z,2.90
2019-01-24T13:20:21.015Z,2.90
2019-01-24T13:22:49.993Z,2.80
2019-01-24T13:25:24.323Z,2.80
2019-01-24T13:27:53.408Z,2.70
2019-01-24T13:30:24.310Z,2.70
2019-01-24T13:32:53.232Z,2.60
2019-01-24T13:35:22.327Z,2.60
2019-01-24T13:37:51.279Z,2.60
2019-01-24T13:40:22.344Z,2.60
2019-01-24T13:42:51.347Z,2.60
2019-01-24T13:45:22.868Z,2.60
2019-01-24T13:47:51.832Z,2.60
2019-01-24T13:50:20.832Z,2.50
2019-01-24T13:52:49.975Z,2.50
2019-01-24T13:55:18.909Z,2.50
2019-01-24T13:57:48.045Z,2.50
2019-01-24T14:00:22.517Z,2.50
2019-01-24T14:02:55.162Z,2.50
2019-01-24T14:05:24.162Z,2.50
2019-01-24T14:07:53.114Z,2.50
2019-01-24T14:10:22.040Z,2.50
2019-01-24T14:12:51.039Z,2.50
2019-01-24T14:15:20.104Z,2.50
2019-01-24T14:17:49.028Z,2.50
2019-01-24T14:20:18.567Z,2.50
2019-01-24T14:22:47.947Z,2.50
2019-01-24T14:25:18.032Z,2.50
2019-01-24T14:27:47.043Z,2.50
2019-01-24T14:30:23.440Z,2.50
2019-01-24T14:32:52.387Z,2.40
2019-01-24T14:35:21.461Z,2.40
2019-01-24T14:37:50.676Z,2.40
2019-01-24T14:40:19.608Z,2.40
2019-01-24T14:42:48.541Z,2.40
2019-01-24T14:45:21.256Z,2.40
2019-01-24T14:47:50.215Z,2.40
2019-01-24T14:50:21.410Z,2.40
2019-01-24T14:52:50.354Z,2.40
2019-01-24T14:55:19.452Z,2.40
2019-01-24T14:57:48.471Z,2.40
2019-01-24T15:00:29.803Z,2.40
2019-01-24T15:02:58.749Z,2.40
2019-01-24T15:05:27.747Z,2.40
2019-01-24T15:07:56.891Z,2.40
2019-01-24T15:10:26.100Z,2.40
2019-01-24T15:12:55.027Z,2.40
2019-01-24T15:15:24.431Z,2.40
2019-01-24T15:17:53.423Z,2.40
2019-01-24T15:20:22.363Z,2.40
2019-01-24T15:22:51.532Z,2.40
2019-01-24T15:25:20.675Z,2.40
2019-01-24T15:27:49.613Z,2.40
2019-01-24T15:30:20.956Z,2.40
2019-01-24T15:32:49.881Z,2.40
2019-01-24T15:35:18.967Z,2.40
2019-01-24T15:37:54.063Z,2.30
2019-01-24T15:40:25.119Z,2.30
2019-01-24T15:42:54.325Z,2.30
2019-01-24T15:45:23.393Z,2.20
2019-01-24T15:47:52.492Z,2.20
2019-01-24T15:50:22.895Z,2.20
2019-01-24T15:52:53.982Z,2.20
2019-01-24T15:55:26.852Z,2.10
2019-01-24T15:57:58.636Z,2.10
2019-01-24T16:00:29.839Z,2.10
2019-01-24T16:03:00.323Z,2.10
2019-01-24T16:05:30.470Z,2.10
2019-01-24T16:08:01.823Z,2.10
2019-01-24T16:10:30.240Z,2.00
2019-01-24T16:12:59.364Z,2.10
2019-01-24T16:15:33.369Z,2.00
2019-01-24T16:18:05.603Z,2.00
2019-01-24T16:20:34.845Z,2.00
2019-01-24T16:23:03.878Z,2.00
2019-01-24T16:25:33.175Z,2.00
2019-01-24T16:28:02.260Z,1.90
2019-01-24T16:30:32.455Z,1.90
2019-01-24T16:33:01.833Z,1.90
2019-01-24T16:35:31.811Z,1.90
2019-01-24T16:38:01.192Z,1.90
2019-01-24T16:40:30.204Z,1.90
2019-01-24T16:43:00.215Z,1.90
2019-01-24T16:45:29.967Z,1.90
2019-01-24T16:47:58.935Z,1.90
2019-01-24T16:50:28.122Z,1.90
2019-01-24T16:52:57.287Z,1.90
2019-01-24T16:55:26.253Z,1.90
2019-01-24T16:57:55.424Z,1.90
2019-01-24T17:00:33.475Z,1.90
2019-01-24T17:03:02.484Z,1.90
2019-01-24T17:05:31.488Z,1.90
2019-01-24T17:08:00.597Z,1.90
2019-01-24T17:10:29.543Z,1.80
2019-01-24T17:12:58.633Z,1.80
2019-01-24T17:15:27.863Z,1.80
2019-01-24T17:17:56.804Z,1.80
2019-01-24T17:20:27.084Z,1.80
2019-01-24T17:22:56.231Z,1.70
2019-01-24T17:25:26.607Z,1.70
2019-01-24T17:27:55.600Z,1.70
2019-01-24T17:30:27.060Z,1.60
2019-01-24T17:32:55.980Z,1.60
2019-01-24T17:35:25.007Z,1.50
2019-01-24T17:37:54.344Z,1.50
2019-01-24T17:40:25.277Z,1.50
2019-01-24T17:42:54.232Z,1.50
2019-01-24T17:45:23.373Z,1.40
2019-01-24T17:47:52.391Z,1.40
2019-01-24T17:50:21.432Z,1.40
2019-01-24T17:52:50.452Z,1.30
2019-01-24T17:55:25.692Z,1.30
2019-01-24T17:57:54.714Z,1.30
2019-01-24T18:00:24.624Z,1.30
2019-01-24T18:02:53.665Z,1.30
2019-01-24T18:05:22.627Z,1.30
2019-01-24T18:07:51.741Z,1.20
2019-01-24T18:10:23.043Z,1.20
2019-01-24T18:12:51.983Z,1.10
2019-01-24T18:15:23.683Z,1.10
2019-01-24T18:17:52.881Z,1.00
2019-01-24T18:20:23.776Z,0.90
2019-01-24T18:22:52.858Z,0.80
2019-01-24T18:25:21.771Z,0.80
2019-01-24T18:27:50.800Z,0.80
2019-01-24T18:30:24.856Z,0.80
2019-01-24T18:32:53.868Z,0.70
2019-01-24T18:35:22.909Z,0.70
2019-01-24T18:37:51.868Z,0.70
2019-01-24T18:40:22.294Z,0.70
2019-01-24T18:42:51.480Z,0.70
2019-01-24T18:45:26.811Z,0.60
2019-01-24T18:47:55.899Z,0.60
2019-01-24T18:50:24.840Z,0.50
2019-01-24T18:52:53.883Z,0.50
2019-01-24T18:55:22.891Z,0.40
2019-01-24T18:57:51.907Z,0.40
2019-01-24T19:00:34.024Z,0.30
2019-01-24T19:03:02.951Z,0.20
2019-01-24T19:05:31.893Z,0.20
2019-01-24T19:08:01.040Z,0.10
2019-01-24T19:10:30.220Z,0.00
2019-01-24T19:12:59.156Z,0.00
2019-01-24T19:15:28.189Z,0.00
2019-01-24T19:17:57.204Z,0.00
2019-01-24T19:20:26.368Z,0.00
2019-01-24T19:22:55.912Z,0.00
2019-01-24T19:25:24.855Z,0.00
2019-01-24T19:27:53.875Z,-0.10
2019-01-24T19:30:27.981Z,-0.10
2019-01-24T19:32:57.027Z,-0.10
2019-01-24T19:35:26.104Z,-0.20
2019-01-24T19:37:55.151Z,-0.20
2019-01-24T19:40:24.740Z,-0.30
2019-01-24T19:42:53.685Z,-0.30
2019-01-24T19:45:23.863Z,-0.40
2019-01-24T19:47:52.872Z,-0.40
2019-01-24T19:50:26.481Z,-0.40
2019-01-24T19:52:55.524Z,-0.40
2019-01-24T19:55:24.828Z,-0.40
2019-01-24T19:57:54.036Z,-0.40
2019-01-24T20:00:25.112Z,-0.40
2019-01-24T20:02:54.058Z,-0.40
2019-01-24T20:05:23.080Z,-0.50
2019-01-24T20:07:52.108Z,-0.50
2019-01-24T20:10:22.772Z,-0.50
2019-01-24T20:12:51.711Z,-0.50
2019-01-24T20:15:25.660Z,-0.60
2019-01-24T20:17:54.795Z,-0.60
2019-01-24T20:20:23.995Z,-0.60
2019-01-24T20:22:53.368Z,-0.70
2019-01-24T20:25:27.001Z,-0.70
2019-01-24T20:27:56.132Z,-0.70
2019-01-24T20:30:26.592Z,-0.80
2019-01-24T20:32:55.695Z,-0.80
2019-01-24T20:35:27.562Z,-0.90
2019-01-24T20:37:56.617Z,-0.90
2019-01-24T20:40:25.742Z,-0.90
2019-01-24T20:45:29.485Z,-1.00
2019-01-24T20:47:58.700Z,-1.00
2019-01-24T20:50:27.920Z,-1.10
2019-01-24T20:52:57.053Z,-1.10
2019-01-24T20:55:26.109Z,-1.10
2019-01-24T20:57:55.220Z,-1.10
2019-01-24T21:00:24.348Z,-1.00
2019-01-24T21:02:53.481Z,-1.00
2019-01-24T21:05:22.749Z,-1.00
2019-01-24T21:07:52.054Z,-0.90
2019-01-24T21:10:23.284Z,-0.90
2019-01-24T21:12:52.521Z,-0.90
2019-01-24T21:15:21.768Z,-0.90
2019-01-24T21:17:50.903Z,-0.90
2019-01-24T21:20:21.975Z,-0.90
2019-01-24T21:22:51.357Z,-0.90
2019-01-24T21:25:21.565Z,-0.90
2019-01-24T21:27:50.682Z,-0.90
2019-01-24T21:30:28.570Z,-0.90
2019-01-24T21:32:57.673Z,-0.90
2019-01-24T21:35:26.904Z,-0.90
2019-01-24T21:37:56.206Z,-0.90
2019-01-24T21:40:25.485Z,-0.90
2019-01-24T21:42:54.514Z,-0.90
2019-01-24T21:45:25.862Z,-0.90
2019-01-24T21:47:54.981Z,-1.00
2019-01-24T21:50:24.877Z,-1.00
2019-01-24T21:52:54.197Z,-1.00
2019-01-24T21:55:23.244Z,-1.00
2019-01-24T21:57:52.285Z,-1.00
2019-01-24T22:00:22.972Z,-1.00
2019-01-24T22:02:52.114Z,-1.10
2019-01-24T22:05:21.361Z,-1.10
2019-01-24T22:07:50.597Z,-1.10
2019-01-24T22:10:29.529Z,-1.10
2019-01-24T22:12:58.794Z,-1.10
2019-01-24T22:15:29.583Z,-1.20
2019-01-24T22:17:58.908Z,-1.20
2019-01-24T22:20:28.079Z,-1.20
2019-01-24T22:22:57.235Z,-1.20
2019-01-24T22:25:31.362Z,-1.20
2019-01-24T22:28:00.485Z,-1.20
2019-01-24T22:30:35.405Z,-1.10
2019-01-24T22:33:04.805Z,-1.20
2019-01-24T22:35:34.045Z,-1.20
2019-01-24T22:38:03.355Z,-1.20
2019-01-24T22:40:32.457Z,-1.20
2019-01-24T22:43:01.657Z,-1.20
2019-01-24T22:45:30.819Z,-1.20
2019-01-24T22:47:59.953Z,-1.20
2019-01-24T22:50:29.053Z,-1.20
2019-01-24T22:52:58.188Z,-1.30
2019-01-24T22:55:27.369Z,-1.30
2019-01-24T22:57:56.484Z,-1.30
2019-01-24T23:00:54.997Z,-1.40
2019-01-24T23:03:39.725Z,-1.40
2019-01-24T23:06:09.071Z,-1.40
2019-01-24T23:08:38.163Z,-1.40
2019-01-24T23:11:07.298Z,-1.40
2019-01-24T23:13:36.396Z,-1.40
2019-01-24T23:16:05.655Z,-1.40
2019-01-24T23:18:34.857Z,-1.50
2019-01-24T23:21:03.994Z,-1.50
2019-01-24T23:23:33.163Z,-1.60
2019-01-24T23:26:02.318Z,-1.60
2019-01-24T23:28:31.645Z,-1.60
2019-01-24T23:31:00.770Z,-1.60
2019-01-24T23:33:29.912Z,-1.60
2019-01-24T23:35:59.193Z,-1.70
2019-01-24T23:38:28.420Z,-1.70
2019-01-24T23:40:57.526Z,-1.70
2019-01-24T23:43:26.968Z,-1.70
2019-01-24T23:45:56.122Z,-1.80
2019-01-24T23:48:25.237Z,-1.80
2019-01-24T23:50:54.369Z,-1.80
2019-01-24T23:53:23.594Z,-1.80
2019-01-24T23:55:52.706Z,-1.80
2019-01-24T23:58:22.117Z,-1.80
